sensor_id;sensor_type;location;lat;lon;timestamp;P1;durP1;ratioP1;P2;durP2;ratioP2
22861;SDS011;11598;50.652;6.172;2023-06-05T00:09:16;4.32;;;1.50;;
22861;SDS011;11598;50.652;6.172;2023-06-05T00:19:16;4.63;;;1.70;;
22861;SDS011;11598;50.652;6.172;2023-06-05T00:29:17;4.77;;;1.80;;
22861;SDS011;11598;50.652;6.172;2023-06-05T00:39:17;7.25;;;1.75;;
22861;SDS011;11598;50.652;6.172;2023-06-05T00:49:21;4.87;;;1.60;;
22861;SDS011;11598;50.652;6.172;2023-06-05T00:59:21;5.32;;;1.63;;
22861;SDS011;11598;50.652;6.172;2023-06-05T01:09:23;8.02;;;2.10;;
22861;SDS011;11598;50.652;6.172;2023-06-05T01:19:24;6.15;;;2.00;;
22861;SDS011;11598;50.652;6.172;2023-06-05T01:29:26;4.25;;;1.60;;
22861;SDS011;11598;50.652;6.172;2023-06-05T01:39:42;6.75;;;2.03;;
22861;SDS011;11598;50.652;6.172;2023-06-05T01:49:46;6.50;;;2.28;;
22861;SDS011;11598;50.652;6.172;2023-06-05T01:59:47;4.45;;;2.22;;
22861;SDS011;11598;50.652;6.172;2023-06-05T02:09:49;5.55;;;1.88;;
22861;SDS011;11598;50.652;6.172;2023-06-05T02:19:50;5.32;;;1.90;;
22861;SDS011;11598;50.652;6.172;2023-06-05T02:29:51;7.18;;;1.90;;
22861;SDS011;11598;50.652;6.172;2023-06-05T02:39:51;5.50;;;1.80;;
22861;SDS011;11598;50.652;6.172;2023-06-05T02:49:52;4.60;;;2.08;;
22861;SDS011;11598;50.652;6.172;2023-06-05T02:59:52;6.20;;;1.90;;
22861;SDS011;11598;50.652;6.172;2023-06-05T03:09:53;8.48;;;2.05;;
22861;SDS011;11598;50.652;6.172;2023-06-05T03:19:54;6.70;;;1.85;;
22861;SDS011;11598;50.652;6.172;2023-06-05T03:29:55;5.78;;;1.90;;
22861;SDS011;11598;50.652;6.172;2023-06-05T03:39:58;4.25;;;1.55;;
22861;SDS011;11598;50.652;6.172;2023-06-05T03:49:58;5.50;;;1.40;;
22861;SDS011;11598;50.652;6.172;2023-06-05T04:00:01;8.45;;;2.13;;
22861;SDS011;11598;50.652;6.172;2023-06-05T04:10:03;5.70;;;1.85;;
22861;SDS011;11598;50.652;6.172;2023-06-05T04:20:04;5.35;;;1.60;;
22861;SDS011;11598;50.652;6.172;2023-06-05T04:30:09;6.88;;;1.50;;
22861;SDS011;11598;50.652;6.172;2023-06-05T04:40:11;4.32;;;1.75;;
22861;SDS011;11598;50.652;6.172;2023-06-05T04:50:21;6.32;;;1.70;;
22861;SDS011;11598;50.652;6.172;2023-06-05T05:00:24;4.25;;;1.80;;
22861;SDS011;11598;50.652;6.172;2023-06-05T05:10:24;6.22;;;1.88;;
22861;SDS011;11598;50.652;6.172;2023-06-05T05:20:25;6.35;;;1.63;;
22861;SDS011;11598;50.652;6.172;2023-06-05T05:30:25;5.38;;;1.40;;
22861;SDS011;11598;50.652;6.172;2023-06-05T05:40:25;7.78;;;1.85;;
22861;SDS011;11598;50.652;6.172;2023-06-05T05:50:26;6.53;;;1.88;;
22861;SDS011;11598;50.652;6.172;2023-06-05T06:00:26;5.43;;;1.48;;
22861;SDS011;11598;50.652;6.172;2023-06-05T06:10:28;8.25;;;1.98;;
22861;SDS011;11598;50.652;6.172;2023-06-05T06:20:28;4.68;;;1.45;;
22861;SDS011;11598;50.652;6.172;2023-06-05T06:30:28;5.05;;;1.77;;
22861;SDS011;11598;50.652;6.172;2023-06-05T06:40:29;4.38;;;1.40;;
22861;SDS011;11598;50.652;6.172;2023-06-05T06:50:30;5.77;;;1.67;;
22861;SDS011;11598;50.652;6.172;2023-06-05T07:00:30;6.03;;;1.60;;
22861;SDS011;11598;50.652;6.172;2023-06-05T07:10:31;5.70;;;1.55;;
22861;SDS011;11598;50.652;6.172;2023-06-05T07:20:31;4.22;;;1.60;;
22861;SDS011;11598;50.652;6.172;2023-06-05T07:30:31;3.33;;;1.40;;
22861;SDS011;11598;50.652;6.172;2023-06-05T07:40:32;4.38;;;1.58;;
22861;SDS011;11598;50.652;6.172;2023-06-05T07:50:32;6.97;;;1.42;;
22861;SDS011;11598;50.652;6.172;2023-06-05T08:00:32;5.97;;;1.80;;
22861;SDS011;11598;50.652;6.172;2023-06-05T08:10:34;9.48;;;1.60;;
22861;SDS011;11598;50.652;6.172;2023-06-05T08:20:34;9.98;;;2.05;;
22861;SDS011;11598;50.652;6.172;2023-06-05T08:30:35;7.33;;;2.40;;
22861;SDS011;11598;50.652;6.172;2023-06-05T08:40:35;8.18;;;2.20;;
22861;SDS011;11598;50.652;6.172;2023-06-05T08:50:36;5.53;;;1.90;;
22861;SDS011;11598;50.652;6.172;2023-06-05T09:00:38;7.38;;;2.28;;
22861;SDS011;11598;50.652;6.172;2023-06-05T09:10:38;7.45;;;2.00;;
22861;SDS011;11598;50.652;6.172;2023-06-05T09:20:39;6.03;;;1.77;;
22861;SDS011;11598;50.652;6.172;2023-06-05T09:30:58;9.90;;;1.77;;
22861;SDS011;11598;50.652;6.172;2023-06-05T09:41:01;5.95;;;1.65;;
22861;SDS011;11598;50.652;6.172;2023-06-05T09:51:10;5.97;;;1.63;;
22861;SDS011;11598;50.652;6.172;2023-06-05T10:01:13;9.73;;;1.88;;
22861;SDS011;11598;50.652;6.172;2023-06-05T10:11:16;10.95;;;1.80;;
22861;SDS011;11598;50.652;6.172;2023-06-05T10:21:17;6.07;;;2.00;;
22861;SDS011;11598;50.652;6.172;2023-06-05T10:41:22;9.00;;;1.83;;
22861;SDS011;11598;50.652;6.172;2023-06-05T10:51:42;4.90;;;1.50;;
22861;SDS011;11598;50.652;6.172;2023-06-05T11:01:43;7.70;;;1.63;;
22861;SDS011;11598;50.652;6.172;2023-06-05T11:11:59;10.52;;;2.00;;
22861;SDS011;11598;50.652;6.172;2023-06-05T11:32:12;6.20;;;1.83;;
22861;SDS011;11598;50.652;6.172;2023-06-05T11:42:20;6.72;;;2.00;;
22861;SDS011;11598;50.652;6.172;2023-06-05T11:52:22;11.57;;;1.98;;
22861;SDS011;11598;50.652;6.172;2023-06-05T12:02:22;9.15;;;1.77;;
22861;SDS011;11598;50.652;6.172;2023-06-05T12:12:23;6.43;;;1.70;;
22861;SDS011;11598;50.652;6.172;2023-06-05T12:22:24;4.35;;;1.60;;
22861;SDS011;11598;50.652;6.172;2023-06-05T12:32:24;5.05;;;2.00;;
22861;SDS011;11598;50.652;6.172;2023-06-05T12:42:25;9.88;;;2.50;;
22861;SDS011;11598;50.652;6.172;2023-06-05T12:52:26;11.32;;;2.75;;
22861;SDS011;11598;50.652;6.172;2023-06-05T13:02:26;8.63;;;2.22;;
22861;SDS011;11598;50.652;6.172;2023-06-05T13:12:28;10.07;;;2.60;;
22861;SDS011;11598;50.652;6.172;2023-06-05T13:22:28;6.00;;;2.30;;
22861;SDS011;11598;50.652;6.172;2023-06-05T13:32:29;9.13;;;2.55;;
22861;SDS011;11598;50.652;6.172;2023-06-05T13:42:30;8.82;;;2.33;;
22861;SDS011;11598;50.652;6.172;2023-06-05T13:52:30;6.03;;;2.45;;
22861;SDS011;11598;50.652;6.172;2023-06-05T14:02:31;6.85;;;2.33;;
22861;SDS011;11598;50.652;6.172;2023-06-05T14:12:32;8.20;;;2.65;;
22861;SDS011;11598;50.652;6.172;2023-06-05T14:22:32;10.68;;;2.80;;
22861;SDS011;11598;50.652;6.172;2023-06-05T14:32:32;7.75;;;2.20;;
22861;SDS011;11598;50.652;6.172;2023-06-05T14:42:33;10.90;;;2.65;;
22861;SDS011;11598;50.652;6.172;2023-06-05T14:52:33;11.25;;;2.40;;
22861;SDS011;11598;50.652;6.172;2023-06-05T15:02:34;5.90;;;2.57;;
22861;SDS011;11598;50.652;6.172;2023-06-05T15:12:36;10.38;;;2.13;;
22861;SDS011;11598;50.652;6.172;2023-06-05T15:22:36;10.10;;;2.70;;
22861;SDS011;11598;50.652;6.172;2023-06-05T15:32:37;13.35;;;3.00;;
22861;SDS011;11598;50.652;6.172;2023-06-05T15:42:38;11.25;;;2.58;;
22861;SDS011;11598;50.652;6.172;2023-06-05T15:52:38;8.25;;;2.70;;
22861;SDS011;11598;50.652;6.172;2023-06-05T16:02:39;8.98;;;2.65;;
22861;SDS011;11598;50.652;6.172;2023-06-05T16:12:39;7.55;;;2.70;;
22861;SDS011;11598;50.652;6.172;2023-06-05T16:22:40;6.30;;;2.38;;
22861;SDS011;11598;50.652;6.172;2023-06-05T16:42:43;5.30;;;2.20;;
22861;SDS011;11598;50.652;6.172;2023-06-05T16:52:43;11.25;;;2.45;;
22861;SDS011;11598;50.652;6.172;2023-06-05T17:02:44;7.47;;;2.30;;
22861;SDS011;11598;50.652;6.172;2023-06-05T17:12:44;6.47;;;2.13;;
22861;SDS011;11598;50.652;6.172;2023-06-05T17:22:45;6.90;;;2.40;;
22861;SDS011;11598;50.652;6.172;2023-06-05T17:32:45;8.50;;;2.30;;
22861;SDS011;11598;50.652;6.172;2023-06-05T17:42:45;11.10;;;2.38;;
22861;SDS011;11598;50.652;6.172;2023-06-05T17:52:46;7.10;;;2.58;;
22861;SDS011;11598;50.652;6.172;2023-06-05T18:02:47;10.38;;;2.63;;
22861;SDS011;11598;50.652;6.172;2023-06-05T18:12:47;8.70;;;2.67;;
22861;SDS011;11598;50.652;6.172;2023-06-05T18:22:48;9.18;;;3.35;;
22861;SDS011;11598;50.652;6.172;2023-06-05T18:32:48;9.02;;;3.15;;
22861;SDS011;11598;50.652;6.172;2023-06-05T18:42:49;9.73;;;2.60;;
22861;SDS011;11598;50.652;6.172;2023-06-05T18:52:49;8.15;;;2.60;;
22861;SDS011;11598;50.652;6.172;2023-06-05T19:02:49;5.88;;;2.72;;
22861;SDS011;11598;50.652;6.172;2023-06-05T19:12:50;6.90;;;2.67;;
22861;SDS011;11598;50.652;6.172;2023-06-05T19:22:50;7.68;;;2.40;;
22861;SDS011;11598;50.652;6.172;2023-06-05T19:32:53;10.23;;;2.95;;
22861;SDS011;11598;50.652;6.172;2023-06-05T19:42:53;8.23;;;2.38;;
22861;SDS011;11598;50.652;6.172;2023-06-05T19:52:53;6.25;;;2.40;;
22861;SDS011;11598;50.652;6.172;2023-06-05T20:02:54;7.43;;;2.30;;
22861;SDS011;11598;50.652;6.172;2023-06-05T20:12:54;6.18;;;2.40;;
22861;SDS011;11598;50.652;6.172;2023-06-05T20:22:55;7.35;;;2.60;;
22861;SDS011;11598;50.652;6.172;2023-06-05T20:32:55;11.15;;;2.90;;
22861;SDS011;11598;50.652;6.172;2023-06-05T20:42:58;6.88;;;2.60;;
22861;SDS011;11598;50.652;6.172;2023-06-05T20:53:00;5.63;;;2.50;;
22861;SDS011;11598;50.652;6.172;2023-06-05T21:03:01;6.22;;;2.25;;
22861;SDS011;11598;50.652;6.172;2023-06-05T21:13:04;6.97;;;2.50;;
22861;SDS011;11598;50.652;6.172;2023-06-05T21:23:04;5.40;;;2.55;;
22861;SDS011;11598;50.652;6.172;2023-06-05T21:33:04;7.50;;;2.70;;
22861;SDS011;11598;50.652;6.172;2023-06-05T21:43:05;6.38;;;2.50;;
22861;SDS011;11598;50.652;6.172;2023-06-05T21:53:05;6.68;;;2.83;;
22861;SDS011;11598;50.652;6.172;2023-06-05T22:03:05;5.85;;;2.70;;
22861;SDS011;11598;50.652;6.172;2023-06-05T22:13:06;5.68;;;2.70;;
22861;SDS011;11598;50.652;6.172;2023-06-05T22:23:12;7.50;;;2.97;;
22861;SDS011;11598;50.652;6.172;2023-06-05T22:33:12;8.35;;;2.92;;
22861;SDS011;11598;50.652;6.172;2023-06-05T22:43:14;7.05;;;2.90;;
22861;SDS011;11598;50.652;6.172;2023-06-05T22:53:14;6.13;;;2.53;;
22861;SDS011;11598;50.652;6.172;2023-06-05T23:03:15;6.63;;;3.13;;
22861;SDS011;11598;50.652;6.172;2023-06-05T23:13:16;7.07;;;3.10;;
22861;SDS011;11598;50.652;6.172;2023-06-05T23:23:17;12.52;;;3.22;;
22861;SDS011;11598;50.652;6.172;2023-06-05T23:33:17;10.73;;;3.58;;
22861;SDS011;11598;50.652;6.172;2023-06-05T23:43:17;7.68;;;3.25;;
22861;SDS011;11598;50.652;6.172;2023-06-05T23:53:18;7.57;;;4.15;;
